Airfield :
LOGIN :

Register | Disclaimer

   EN    FR    IT 

 










Legend :    VFR   Marginal VFR   IFR   Intensive IFR   Very Intensive IFR
Visi :
Ceiling :
>= 8 km
>= 3000ft
5 to 8 km
1000 to 3000 ft
1500m to 5 km
500 to 1000 ft
800 to 1500m
200 to 500 ft
< 800m
< 200 ft
Symbols :   Thunderstorms  Fog  Heavy snow  Heavy precipitations  Wind > 20 kt
SIGMETs :     Misc.  Thunderstorms  Icing  Turbulence  Mountain Waves  Volcanic Ashes






- Airport Elevation : 22 ft
- IATA code : LDY


EGAE - Londonderry Eglington

CURRENT METAR :
  • 101050Z 22020G32KT 5000 -RA FEW009 BKN016 BKN028 14/12 Q0984

EXPIRED METARs :
  • 101020Z 21022G33KT 9999 9000W -RA FEW009 SCT016 BKN048 14/12 Q0986
  • 100950Z 21024G36KT 9999 SCT008 SCT016 BKN038 14/12 Q0986
  • 100920Z 21022KT 9999 -RA FEW008 SCT016 BKN038 13/11 Q0987
  • 100850Z 21027G38KT 9999 -RA FEW011 SCT016 BKN046 13/11 Q0988
  • 100820Z 20027G39KT 9000 -RA FEW009 BKN017 13/11 Q0989

TAF TAF EGAE
Valid from the 10 at 09:00 until the 10 at 18:00 UTC


100808Z 1009/1018 20027G43KT 9999 FEW012 BKN020
TEMPO 1009/1014 7000 RA
PROB40
TEMPO 1009/1013 4000 +RA BKN012
BECMG 1011/1013 27020G30KT
TEMPO 1014/1018 7000 SHRA



MET'MAP, your aeronautical weather chart ! - Copyright ORBIFLY December 2007 - Disclaimer

ORBIFLY MET'MAP TEAM :

Programming & Development : Alexandra Zaïnal
Concept & original design : Baudouin d'Aumeries
Assistance for programming : Marc-Olivier Méhu
Technical & hardware support : Manuel Goepfert

Contact : metmap@orbifly.com




SOURCES & CREDITS :

   NOAA